• Join FlightAware (Why Join?)
  • Login
  • US Flag 
05:07PM EDT


 

Airport Tracker/Info


-or-


 

Live Flight TrackerFlight Track Log ✈ EJA982 ✈ 25-Jul-2013 ✈ KSTS - KLVK

Flight Track Log - Related Links

Times and Time Zones

All times are in EDT time to prevent confusion due to time zone crossing. See the EJA982 flight status page for this flight to view local times or setup timezone preferences in your user account.

Time Position Orientation Groundspeed Altitude Reporting Facility
EDT Latitude Longitude Course Direction KTS MPH feet Rate Location/Type
02:11PM 38.4378 -122.7733 158° South 226 260 4,700  Level Oakland Center
02:12PM 38.3706 -122.7353 156° South 262 302 7,900 1,560 Climbing Oakland Center
02:13PM 38.3414 -122.6400 111° Southeast 282 325 8,000  Climbing Oakland Center
02:15PM 38.1936 -122.4253 150° Southeast  Level Estimated
02:15PM 38.3133 -122.5442 110° East 286 329 8,000  Level Oakland Center
02:16PM 38.1207 -122.4223 178° South  Level FlightAware Approximate
02:16PM 38.2850 -122.4486 111° Southeast 288 331 7,900  Level Oakland Center
02:17PM 38.2567 -122.3533 111° Southeast 286 329 8,000  Climbing Oakland Center
02:18PM 38.2311 -122.2581 109° East 284 327 8,000  Level Oakland Center
02:19PM 38.1972 -122.1439 111° Southeast 286 329 8,000  Level Oakland Center
02:20PM 38.1678 -122.0475 111° Southeast 289 333 8,000  Level Oakland Center
02:21PM 38.1389 -121.9525 111° Southeast 289 333 8,100 -120 Climbing Oakland Center
02:22PM 38.1108 -121.8550 110° East 293 337 7,800 -1,080 Descending Oakland Center
02:23PM 38.0836 -121.7608 110° East 288 331 6,000 -1,440 Descending Oakland Center
02:24PM 38.0400 -121.6850 126° Southeast 284 327 4,900 -540 Descending Oakland Center
02:25PM 37.9831 -121.6194 138° Southeast 283 326 5,000  Climbing Oakland Center
02:26PM 37.9236 -121.5514 138° Southeast 282 325 5,000  Level Oakland Center
02:27PM 37.8500 -121.5167 160° South 281 323 5,000 -600 Level Northern Cal TRACON
02:28PM 37.7833 -121.5167 180° South 276 318 4,000 -720 Descending Northern Cal TRACON
02:29PM 37.7167 -121.5500 202° Southwest 255 293 3,600 -360 Descending Northern Cal TRACON
02:30PM 37.6833 -121.6167 238° Southwest 233 268 3,300 -660 Descending Northern Cal TRACON
02:31PM 37.7000 -121.6833 288° West 211 243 2,300 -900 Descending Northern Cal TRACON
02:32PM 37.7000 -121.7500 270° West 165 190 1,500 -420 Descending Northern Cal TRACON
02:33PM 37.6833 -121.7833 238° Southwest 143 165 1,500  Level Northern Cal TRACON